createdAt,value
2017-10-31T00:00:53.296Z,75.30
2017-10-31T00:03:27.044Z,76.00
2017-10-31T00:06:00.878Z,75.80
2017-10-31T00:08:34.675Z,75.40
2017-10-31T00:11:09.506Z,75.40
2017-10-31T00:13:43.570Z,75.30
2017-10-31T00:16:18.240Z,75.30
2017-10-31T00:18:52.196Z,75.60
2017-10-31T00:21:26.774Z,75.70
2017-10-31T00:24:01.453Z,75.50
2017-10-31T00:26:35.832Z,75.40
2017-10-31T00:29:10.241Z,75.00
2017-10-31T00:31:44.633Z,75.30
2017-10-31T00:34:18.405Z,75.30
2017-10-31T00:36:52.971Z,75.60
2017-10-31T00:39:27.592Z,75.60
2017-10-31T00:42:01.227Z,75.50
2017-10-31T00:44:34.938Z,75.60
2017-10-31T00:47:08.989Z,75.30
2017-10-31T00:49:42.667Z,74.70
2017-10-31T00:52:16.459Z,74.60
2017-10-31T00:54:50.285Z,74.60
2017-10-31T00:57:26.703Z,74.60
2017-10-31T01:00:00.290Z,74.50
2017-10-31T01:02:34.054Z,74.40
2017-10-31T01:05:07.821Z,73.80
2017-10-31T01:07:41.988Z,73.90
2017-10-31T01:10:16.787Z,74.00
2017-10-31T01:12:50.558Z,74.00
2017-10-31T01:15:24.357Z,73.70
2017-10-31T01:17:58.166Z,73.70
2017-10-31T01:20:31.956Z,73.80
2017-10-31T01:23:05.660Z,74.10
2017-10-31T01:25:39.283Z,74.30
2017-10-31T01:28:13.247Z,74.50
2017-10-31T01:30:46.999Z,74.60
2017-10-31T01:33:20.749Z,75.00
2017-10-31T01:35:54.400Z,75.30
2017-10-31T01:38:28.138Z,75.60
2017-10-31T01:41:01.802Z,75.60
2017-10-31T01:43:35.549Z,76.00
2017-10-31T01:46:10.379Z,76.30
2017-10-31T01:48:44.106Z,76.20
2017-10-31T01:51:17.757Z,76.60
2017-10-31T01:53:51.471Z,76.80
2017-10-31T01:56:26.194Z,76.90
2017-10-31T01:58:59.964Z,77.20
2017-10-31T02:01:33.896Z,77.30
2017-10-31T02:04:07.702Z,77.40
2017-10-31T02:06:42.212Z,77.60
2017-10-31T02:09:18.556Z,77.60
2017-10-31T02:11:52.989Z,77.90
2017-10-31T02:14:26.603Z,78.00
2017-10-31T02:17:00.460Z,78.10
2017-10-31T02:19:34.197Z,78.20
2017-10-31T02:22:09.126Z,78.00
2017-10-31T02:24:42.808Z,78.10
2017-10-31T02:27:16.638Z,78.10
2017-10-31T02:29:50.390Z,78.20
2017-10-31T02:32:24.164Z,78.30
2017-10-31T02:34:57.959Z,78.40
2017-10-31T02:37:31.745Z,78.40
2017-10-31T02:40:05.510Z,78.30
2017-10-31T02:42:39.317Z,78.20
2017-10-31T02:45:13.154Z,78.30
2017-10-31T02:47:47.002Z,78.40
2017-10-31T02:50:20.770Z,78.50
2017-10-31T02:52:55.049Z,78.80
2017-10-31T02:55:28.909Z,78.60
2017-10-31T02:58:02.972Z,78.30
2017-10-31T03:00:36.600Z,78.20
2017-10-31T03:03:10.701Z,77.80
2017-10-31T03:05:44.316Z,77.80
2017-10-31T03:08:18.386Z,77.60
2017-10-31T03:10:52.162Z,77.60
2017-10-31T03:13:25.986Z,77.60
2017-10-31T03:15:59.696Z,77.60
2017-10-31T03:18:33.545Z,77.50
2017-10-31T03:21:07.270Z,77.50
2017-10-31T03:23:41.166Z,77.50
2017-10-31T03:26:14.864Z,77.40
2017-10-31T03:28:49.535Z,77.40
2017-10-31T03:31:23.272Z,77.40
2017-10-31T03:33:57.058Z,77.50
2017-10-31T03:36:30.762Z,77.40
2017-10-31T03:39:04.641Z,77.40
2017-10-31T03:41:39.397Z,77.60
2017-10-31T03:44:13.084Z,77.50
2017-10-31T03:46:46.859Z,77.60
2017-10-31T03:49:21.972Z,77.50
2017-10-31T03:51:55.545Z,77.40
2017-10-31T03:54:29.381Z,77.30
2017-10-31T03:57:03.186Z,77.10
2017-10-31T03:59:37.041Z,77.30
2017-10-31T04:02:10.848Z,77.30
2017-10-31T04:04:44.695Z,77.30
2017-10-31T04:07:18.468Z,77.20
2017-10-31T04:09:52.341Z,77.30
2017-10-31T04:12:26.068Z,77.10
2017-10-31T04:14:59.903Z,77.20
2017-10-31T04:17:34.416Z,77.70
2017-10-31T04:20:08.268Z,77.20
2017-10-31T04:22:42.387Z,77.20
2017-10-31T04:25:16.242Z,77.10
2017-10-31T04:27:49.910Z,77.20
2017-10-31T04:30:23.638Z,77.30
2017-10-31T04:32:57.725Z,77.30
2017-10-31T04:35:31.538Z,77.50
2017-10-31T04:38:05.250Z,77.60
2017-10-31T04:40:39.605Z,77.40
2017-10-31T04:43:13.236Z,77.40
2017-10-31T04:48:26.209Z,77.70
2017-10-31T04:50:59.874Z,77.70
2017-10-31T04:53:33.655Z,77.80
2017-10-31T04:56:07.452Z,77.70
2017-10-31T04:58:41.257Z,77.80
2017-10-31T05:01:15.202Z,77.90
2017-10-31T05:03:49.668Z,77.50
2017-10-31T05:06:23.431Z,77.50
2017-10-31T05:08:57.169Z,77.30
2017-10-31T05:11:30.977Z,77.50
2017-10-31T05:14:05.131Z,77.60
2017-10-31T05:16:38.866Z,77.80
2017-10-31T05:19:13.207Z,77.50
2017-10-31T05:21:46.817Z,77.70
2017-10-31T05:24:20.595Z,77.40
2017-10-31T05:26:54.381Z,77.50
2017-10-31T05:29:28.940Z,77.70
2017-10-31T05:32:02.623Z,77.70
2017-10-31T05:34:36.346Z,77.80
2017-10-31T05:37:10.447Z,77.60
2017-10-31T05:39:44.212Z,77.60
2017-10-31T05:42:18.939Z,77.10
2017-10-31T05:44:52.525Z,77.10
2017-10-31T05:47:26.328Z,77.00
2017-10-31T05:50:00.552Z,77.00
2017-10-31T05:52:34.353Z,77.10
2017-10-31T05:55:08.115Z,77.20
2017-10-31T05:57:41.917Z,77.20
2017-10-31T06:00:15.643Z,76.70
2017-10-31T06:02:50.192Z,76.30
2017-10-31T06:05:24.341Z,76.30
2017-10-31T06:07:59.019Z,76.10
2017-10-31T06:10:32.801Z,76.10
2017-10-31T06:13:06.668Z,76.00
2017-10-31T06:15:40.401Z,75.70
2017-10-31T06:18:14.170Z,75.80
2017-10-31T06:20:47.955Z,75.30
2017-10-31T06:23:27.288Z,75.10
2017-10-31T06:26:17.818Z,75.10
2017-10-31T06:28:57.334Z,75.20
2017-10-31T06:31:37.111Z,75.10
2017-10-31T06:34:11.207Z,74.30
2017-10-31T06:36:44.762Z,74.50
2017-10-31T06:39:19.281Z,74.40
2017-10-31T06:41:53.466Z,74.40
2017-10-31T06:44:27.223Z,74.40
2017-10-31T06:47:01.240Z,74.50
2017-10-31T06:49:35.058Z,74.50
2017-10-31T06:52:09.616Z,74.50
2017-10-31T06:54:43.453Z,74.40
2017-10-31T06:57:17.176Z,74.40
2017-10-31T06:59:52.055Z,73.70
2017-10-31T07:02:25.974Z,73.80
2017-10-31T07:04:59.771Z,73.60
2017-10-31T07:07:33.434Z,73.70
2017-10-31T07:10:07.040Z,73.30
2017-10-31T07:12:41.553Z,72.50
2017-10-31T07:15:15.342Z,72.50
2017-10-31T07:17:49.124Z,72.20
2017-10-31T07:20:23.439Z,71.80
2017-10-31T07:22:57.892Z,71.00
2017-10-31T07:25:32.092Z,71.00
2017-10-31T07:28:05.731Z,71.20
2017-10-31T07:30:40.558Z,70.40
2017-10-31T07:33:14.243Z,70.40
2017-10-31T07:35:49.124Z,69.50
2017-10-31T07:38:22.965Z,69.40
2017-10-31T07:40:56.725Z,68.90
2017-10-31T07:43:31.284Z,68.80
2017-10-31T07:46:05.817Z,68.60
2017-10-31T07:51:19.054Z,68.60
2017-10-31T07:53:52.723Z,68.20
2017-10-31T07:56:26.570Z,68.20
2017-10-31T07:59:01.077Z,68.30
2017-10-31T08:01:36.305Z,67.90
2017-10-31T08:04:10.131Z,67.90
2017-10-31T08:06:44.924Z,67.80
2017-10-31T08:09:18.625Z,67.80
2017-10-31T08:11:52.351Z,67.50
2017-10-31T08:14:26.098Z,68.00
2017-10-31T08:17:00.084Z,67.40
2017-10-31T08:19:34.568Z,67.80
2017-10-31T08:22:09.885Z,66.90
2017-10-31T08:24:44.361Z,67.00
2017-10-31T08:27:18.231Z,67.00
2017-10-31T08:29:52.000Z,67.10
2017-10-31T08:32:25.714Z,66.40
2017-10-31T08:35:01.403Z,66.60
2017-10-31T08:37:35.189Z,66.00
2017-10-31T08:40:09.467Z,66.20
2017-10-31T08:42:43.174Z,66.10
2017-10-31T08:45:17.621Z,65.70
2017-10-31T08:47:51.499Z,65.60
2017-10-31T08:50:25.082Z,65.70
2017-10-31T08:52:59.274Z,65.40
2017-10-31T08:55:33.705Z,65.00
2017-10-31T08:58:07.494Z,65.00
2017-10-31T09:00:41.237Z,64.60
2017-10-31T09:03:15.075Z,64.10
2017-10-31T09:05:49.934Z,64.10
2017-10-31T09:08:23.620Z,63.70
2017-10-31T09:10:57.608Z,62.70
2017-10-31T09:13:32.234Z,62.40
2017-10-31T09:16:06.627Z,62.40
2017-10-31T09:18:40.509Z,62.40
2017-10-31T09:21:14.815Z,62.40
2017-10-31T09:23:48.899Z,62.70
2017-10-31T09:26:23.579Z,62.80
2017-10-31T09:28:58.128Z,62.70
2017-10-31T09:31:32.783Z,62.70
2017-10-31T09:34:06.792Z,62.60
2017-10-31T09:36:41.502Z,62.20
2017-10-31T09:39:15.644Z,62.10
2017-10-31T09:41:49.707Z,62.80
2017-10-31T09:44:23.629Z,63.10
2017-10-31T09:46:57.918Z,62.80
2017-10-31T09:49:32.018Z,62.50
2017-10-31T09:52:05.833Z,62.30
2017-10-31T09:54:39.613Z,62.20
2017-10-31T09:57:14.972Z,62.30
2017-10-31T10:02:35.906Z,60.80
2017-10-31T10:05:09.704Z,58.90
2017-10-31T10:07:44.272Z,57.50
2017-10-31T10:10:18.064Z,58.50
2017-10-31T10:12:52.603Z,57.80
2017-10-31T10:15:26.589Z,57.80
2017-10-31T10:18:00.420Z,58.40
2017-10-31T10:20:34.218Z,57.90
2017-10-31T10:23:08.712Z,58.60
2017-10-31T10:25:43.017Z,58.60
2017-10-31T10:28:16.756Z,58.60
2017-10-31T10:30:50.604Z,58.60
2017-10-31T10:33:24.417Z,58.30
2017-10-31T10:35:58.259Z,58.00
2017-10-31T10:38:31.992Z,57.70
2017-10-31T10:41:06.321Z,58.00
2017-10-31T10:43:40.481Z,57.40
2017-10-31T10:46:14.461Z,57.40
2017-10-31T10:48:48.303Z,57.20
2017-10-31T10:51:22.199Z,57.30
2017-10-31T10:53:55.898Z,57.80
2017-10-31T10:56:30.373Z,56.80
2017-10-31T10:59:05.290Z,56.60
2017-10-31T11:01:40.862Z,56.40
2017-10-31T11:04:14.768Z,57.00
2017-10-31T11:06:48.915Z,56.60
2017-10-31T11:09:22.621Z,57.00
2017-10-31T11:11:56.365Z,57.40
2017-10-31T11:14:31.080Z,57.80
2017-10-31T11:17:06.769Z,57.70
2017-10-31T11:19:41.187Z,58.00
2017-10-31T11:22:14.857Z,58.00
2017-10-31T11:24:48.577Z,58.40
2017-10-31T11:27:22.594Z,58.70
2017-10-31T11:32:37.041Z,58.20
2017-10-31T11:35:13.777Z,58.20
2017-10-31T11:37:57.342Z,58.20
2017-10-31T11:40:32.504Z,58.20
2017-10-31T11:43:06.392Z,58.10
2017-10-31T11:45:40.146Z,58.40
2017-10-31T11:48:14.483Z,58.10
2017-10-31T11:50:49.540Z,58.10
2017-10-31T11:53:24.871Z,58.30
2017-10-31T11:55:59.332Z,58.20
2017-10-31T11:58:33.391Z,57.90
2017-10-31T12:01:06.988Z,58.80
2017-10-31T12:03:40.571Z,58.70
2017-10-31T12:06:14.326Z,57.80
2017-10-31T12:08:48.067Z,58.30
2017-10-31T12:11:22.650Z,58.20
2017-10-31T12:13:57.208Z,58.90
2017-10-31T12:16:31.826Z,58.60
2017-10-31T12:19:05.697Z,58.60
2017-10-31T12:21:39.432Z,58.60
2017-10-31T12:24:18.096Z,58.60
2017-10-31T12:26:52.537Z,58.70
2017-10-31T12:29:26.616Z,58.70
2017-10-31T12:34:39.143Z,60.30
2017-10-31T12:37:14.876Z,60.60
2017-10-31T12:39:48.609Z,60.60
2017-10-31T12:42:23.976Z,60.70
2017-10-31T12:44:57.585Z,60.70
2017-10-31T12:47:31.282Z,59.60
2017-10-31T12:52:45.445Z,58.80
2017-10-31T12:55:19.498Z,58.80
2017-10-31T12:57:58.148Z,59.20
2017-10-31T13:00:31.785Z,59.30
2017-10-31T13:03:06.517Z,60.60
2017-10-31T13:05:40.364Z,61.00
2017-10-31T13:08:14.069Z,61.10
2017-10-31T13:10:48.380Z,60.90
2017-10-31T13:13:22.027Z,60.00
2017-10-31T13:15:55.689Z,60.00
2017-10-31T13:18:29.699Z,60.10
2017-10-31T13:21:03.387Z,60.40
2017-10-31T13:26:38.546Z,60.80
2017-10-31T13:29:13.009Z,60.80
2017-10-31T13:31:49.486Z,60.80
2017-10-31T13:37:03.250Z,61.40
2017-10-31T13:39:43.070Z,60.90
2017-10-31T13:42:21.233Z,61.10
2017-10-31T13:44:55.114Z,62.10
2017-10-31T13:47:29.506Z,62.50
2017-10-31T13:50:03.716Z,62.50
2017-10-31T13:52:38.029Z,62.30
2017-10-31T13:55:11.834Z,62.40
2017-10-31T14:00:25.438Z,61.30
2017-10-31T14:03:00.194Z,61.40
2017-10-31T14:05:34.478Z,61.40
2017-10-31T14:08:08.480Z,61.50
2017-10-31T14:10:42.458Z,63.00
2017-10-31T14:13:21.924Z,63.50
2017-10-31T14:16:03.079Z,63.60
2017-10-31T14:18:38.385Z,63.70
2017-10-31T14:21:13.715Z,63.70
2017-10-31T14:23:47.447Z,63.80
2017-10-31T14:26:21.265Z,63.80
2017-10-31T14:28:56.425Z,64.10
2017-10-31T14:31:30.908Z,64.50
2017-10-31T14:34:04.708Z,64.70
2017-10-31T14:36:39.038Z,65.00
2017-10-31T14:39:12.845Z,65.10
2017-10-31T14:41:47.493Z,65.00
2017-10-31T14:44:23.087Z,65.10
2017-10-31T14:46:56.888Z,65.10
2017-10-31T14:49:30.574Z,65.30
2017-10-31T14:52:04.442Z,65.10
2017-10-31T14:54:38.209Z,65.10
2017-10-31T14:57:12.581Z,65.20
2017-10-31T14:59:47.136Z,65.30
2017-10-31T15:02:20.936Z,65.20
2017-10-31T15:04:54.662Z,65.40
2017-10-31T15:07:28.425Z,65.50
2017-10-31T15:10:02.980Z,65.50
2017-10-31T15:12:37.513Z,65.30
2017-10-31T15:15:11.288Z,65.30
2017-10-31T15:17:45.157Z,65.60
2017-10-31T15:20:18.978Z,65.60
2017-10-31T15:22:52.728Z,65.30
2017-10-31T15:25:26.497Z,65.30
2017-10-31T15:28:00.228Z,65.70
2017-10-31T15:30:34.747Z,66.00
2017-10-31T15:33:08.558Z,66.00
2017-10-31T15:35:42.327Z,66.10
2017-10-31T15:38:16.095Z,66.00
2017-10-31T15:40:50.001Z,65.80
2017-10-31T15:43:24.713Z,66.10
2017-10-31T15:45:58.428Z,66.10
2017-10-31T15:48:32.168Z,66.10
2017-10-31T15:51:05.852Z,66.30
2017-10-31T15:53:39.564Z,66.70
2017-10-31T15:56:14.057Z,66.70
2017-10-31T15:58:48.565Z,66.60
2017-10-31T16:01:22.253Z,67.30
2017-10-31T16:03:55.995Z,66.60
2017-10-31T16:06:29.841Z,66.70
2017-10-31T16:09:03.440Z,66.50
2017-10-31T16:11:37.213Z,66.40
2017-10-31T16:14:11.004Z,66.50
2017-10-31T16:16:44.557Z,66.60
2017-10-31T16:19:18.198Z,66.60
2017-10-31T16:21:52.608Z,66.60
2017-10-31T16:24:27.265Z,66.70
2017-10-31T16:27:00.960Z,66.60
2017-10-31T16:29:35.140Z,66.70
2017-10-31T16:32:09.686Z,67.80
2017-10-31T16:34:44.263Z,66.90
2017-10-31T16:37:18.120Z,66.90
2017-10-31T16:39:51.797Z,66.90
2017-10-31T16:42:26.246Z,67.00
2017-10-31T16:44:59.987Z,66.80
2017-10-31T16:47:33.801Z,66.90
2017-10-31T16:50:07.541Z,66.80
2017-10-31T16:52:41.263Z,66.90
2017-10-31T16:55:15.076Z,66.90
2017-10-31T16:57:48.875Z,67.10
2017-10-31T17:00:22.580Z,67.20
2017-10-31T17:02:56.345Z,67.30
2017-10-31T17:05:31.109Z,67.40
2017-10-31T17:08:04.886Z,67.20
2017-10-31T17:10:38.765Z,67.30
2017-10-31T17:13:12.590Z,67.30
2017-10-31T17:15:46.529Z,67.80
2017-10-31T17:18:20.920Z,67.80
2017-10-31T17:20:54.752Z,67.70
2017-10-31T17:23:28.445Z,67.80
2017-10-31T17:26:02.282Z,67.70
2017-10-31T17:28:36.073Z,67.70
2017-10-31T17:31:13.006Z,67.60
2017-10-31T17:33:46.787Z,67.60
2017-10-31T17:36:20.450Z,67.60
2017-10-31T17:38:54.334Z,67.70
2017-10-31T17:41:28.989Z,67.80
2017-10-31T17:44:03.660Z,67.60
2017-10-31T17:46:37.313Z,67.60
2017-10-31T17:49:11.157Z,67.80
2017-10-31T17:51:44.875Z,67.90
2017-10-31T17:54:18.521Z,67.60
2017-10-31T17:56:52.231Z,67.70
2017-10-31T17:59:26.074Z,67.70
2017-10-31T18:01:59.984Z,67.70
2017-10-31T18:04:33.822Z,67.80
2017-10-31T18:07:07.516Z,67.80
2017-10-31T18:09:41.969Z,67.80
2017-10-31T18:12:15.769Z,67.80
2017-10-31T18:14:49.489Z,67.80
2017-10-31T18:17:23.270Z,67.80
2017-10-31T18:19:57.121Z,67.80
2017-10-31T18:22:30.867Z,67.90
2017-10-31T18:25:04.669Z,67.70
2017-10-31T18:27:38.378Z,67.80
2017-10-31T18:30:12.996Z,67.60
2017-10-31T18:32:46.636Z,67.40
2017-10-31T18:35:21.141Z,67.50
2017-10-31T18:37:55.003Z,67.40
2017-10-31T18:40:28.668Z,67.30
2017-10-31T18:43:03.197Z,67.10
2017-10-31T18:45:36.845Z,67.10
2017-10-31T18:48:10.433Z,67.30
2017-10-31T18:50:44.144Z,67.10
2017-10-31T18:53:17.831Z,67.20
2017-10-31T18:55:53.349Z,67.20
2017-10-31T18:58:27.135Z,67.20
2017-10-31T19:01:01.626Z,67.20
2017-10-31T19:03:35.414Z,67.20
2017-10-31T19:06:09.918Z,68.20
2017-10-31T19:08:44.449Z,68.00
2017-10-31T19:11:18.561Z,67.90
2017-10-31T19:13:52.238Z,68.00
2017-10-31T19:16:25.942Z,68.00
2017-10-31T19:18:59.737Z,67.90
2017-10-31T19:21:34.262Z,68.40
2017-10-31T19:24:10.047Z,68.40
2017-10-31T19:26:44.077Z,68.80
2017-10-31T19:29:17.885Z,69.10
2017-10-31T19:31:54.322Z,69.40
2017-10-31T19:34:28.141Z,69.80
2017-10-31T19:37:01.863Z,70.00
2017-10-31T19:39:35.522Z,70.10
2017-10-31T19:42:09.254Z,70.30
2017-10-31T19:44:43.091Z,70.40
2017-10-31T19:47:16.925Z,70.50
2017-10-31T19:49:50.955Z,70.70
2017-10-31T19:52:25.580Z,70.70
2017-10-31T19:54:59.347Z,70.80
2017-10-31T19:57:33.130Z,71.00
2017-10-31T20:00:06.951Z,71.30
2017-10-31T20:02:41.585Z,71.70
2017-10-31T20:05:15.960Z,71.70
2017-10-31T20:07:49.801Z,72.10
2017-10-31T20:10:24.207Z,72.10
2017-10-31T20:12:58.010Z,72.10
2017-10-31T20:15:31.832Z,72.30
2017-10-31T20:18:05.657Z,72.10
2017-10-31T20:20:40.251Z,72.50
2017-10-31T20:23:13.903Z,72.50
2017-10-31T20:25:47.701Z,72.40
2017-10-31T20:28:21.502Z,72.40
2017-10-31T20:30:55.219Z,72.60
2017-10-31T20:33:28.898Z,72.80
2017-10-31T20:36:02.616Z,73.30
2017-10-31T20:38:36.198Z,73.40
2017-10-31T20:41:09.970Z,74.10
2017-10-31T20:43:43.733Z,74.80
2017-10-31T20:46:17.365Z,75.40
2017-10-31T20:48:51.108Z,76.40
2017-10-31T20:51:24.880Z,76.30
2017-10-31T20:53:58.838Z,76.40
2017-10-31T20:56:33.437Z,76.30
2017-10-31T20:59:07.234Z,76.30
2017-10-31T21:01:41.053Z,76.40
2017-10-31T21:04:15.640Z,76.40
2017-10-31T21:06:49.510Z,76.40
2017-10-31T21:09:23.149Z,76.40
2017-10-31T21:11:56.961Z,76.10
2017-10-31T21:14:30.805Z,75.90
2017-10-31T21:17:04.458Z,75.50
2017-10-31T21:19:38.193Z,75.70
2017-10-31T21:22:12.093Z,75.40
2017-10-31T21:24:45.836Z,75.30
2017-10-31T21:27:19.728Z,75.40
2017-10-31T21:29:54.109Z,75.70
2017-10-31T21:32:28.683Z,75.70
2017-10-31T21:35:02.512Z,75.60
2017-10-31T21:37:36.190Z,75.80
2017-10-31T21:40:10.538Z,75.30
2017-10-31T21:42:44.353Z,75.60
2017-10-31T21:45:18.794Z,76.50
2017-10-31T21:47:52.554Z,76.40
2017-10-31T21:50:27.028Z,76.40
2017-10-31T21:53:01.545Z,77.60
2017-10-31T21:55:36.078Z,78.20
2017-10-31T21:58:10.737Z,79.60
2017-10-31T22:00:44.465Z,79.60
2017-10-31T22:03:18.353Z,79.40
2017-10-31T22:05:52.212Z,80.50
2017-10-31T22:08:26.080Z,81.30
2017-10-31T22:10:59.857Z,81.40
2017-10-31T22:13:33.606Z,81.90
2017-10-31T22:16:07.440Z,82.70
2017-10-31T22:18:41.193Z,82.40
2017-10-31T22:21:15.711Z,85.00
2017-10-31T22:23:49.384Z,84.60
2017-10-31T22:26:23.979Z,84.40
2017-10-31T22:28:57.677Z,84.40
2017-10-31T22:31:31.514Z,84.70
2017-10-31T22:34:05.319Z,85.50
2017-10-31T22:36:39.897Z,85.90
2017-10-31T22:39:13.715Z,85.90
2017-10-31T22:41:47.409Z,86.00
2017-10-31T22:44:21.893Z,86.10
2017-10-31T22:46:55.716Z,86.10
2017-10-31T22:49:29.487Z,86.40
2017-10-31T22:52:04.070Z,87.60
2017-10-31T22:54:37.926Z,86.80
2017-10-31T22:57:11.661Z,86.90
2017-10-31T22:59:46.122Z,86.80
2017-10-31T23:02:19.826Z,86.80
2017-10-31T23:04:53.656Z,86.80
2017-10-31T23:07:28.056Z,87.00
2017-10-31T23:10:01.903Z,87.00
2017-10-31T23:12:35.613Z,87.10
2017-10-31T23:15:10.078Z,86.90
2017-10-31T23:17:43.789Z,86.90
2017-10-31T23:20:17.324Z,87.20
2017-10-31T23:22:51.877Z,87.20
2017-10-31T23:25:25.513Z,87.20
2017-10-31T23:27:59.253Z,87.40
2017-10-31T23:30:32.881Z,87.60
2017-10-31T23:33:06.537Z,87.50
2017-10-31T23:35:40.190Z,87.50
2017-10-31T23:38:14.001Z,87.70
2017-10-31T23:40:48.464Z,88.00
2017-10-31T23:43:22.941Z,88.20
2017-10-31T23:45:56.725Z,88.20
2017-10-31T23:48:30.450Z,88.40
2017-10-31T23:51:04.051Z,88.50
2017-10-31T23:53:37.725Z,88.50
2017-10-31T23:56:11.597Z,88.60
2017-10-31T23:58:46.142Z,88.50
